Azure — ZCEE2 — position and weather

sailwx.info

Track history (hours):
 
Tides and Currents Weather Stations Pressure Air Temp Water Temp Dewpoint Dewpoint Depression Visibility Wind Speed Wind Dir Waves Ship Positions

Azure

Last reported at 2017-Apr-25 07:00 UTC. Time now 2017-Apr-25 12:32 UTC.
Position N 44°12' W 009°54'.

Length 289 m; draft 8.6 m.

Type: Passenger vessel. MMSI: 310610000.

Wind from 060 at 20 knots

Barometer 1011.6 mb
Air temperature 15.5 ° C
Visibility: greater than 5.4 NM
Dewpoint 10.8 ° C
Water temperature 14.0 ° C

Date/timePositionNaut miles runAvg speedWind from/ knotsBaromVisibWave heightAir tempDewpointWater temp
2017-Apr-25 07:00N 44°12' W 009°54'17614.7 060 / 201011.6 5.4 15.510.814.0
2017-Apr-24 19:00N 46°42' W 007°42'5016.0 030 / 81016.610.8 16.0 9.313.0
2017-Apr-24 15:51N 47°26' W 007°08'616.4
2017-Apr-24 15:30N 47°31' W 007°03'816.4
2017-Apr-24 15:00N 47°38' W 006°57'816.2
2017-Apr-24 14:30N 47°45' W 006°51'4515.9
2017-Apr-24 11:38N 48°24' W 006°15'214.3
2017-Apr-24 11:28N 48°26' W 006°14'1114.6
2017-Apr-24 10:41N 48°36' W 006°05'315.0
2017-Apr-24 10:30N 48°38' W 006°02'915.4
2017-Apr-24 09:55N 48°46' W 005°55'615.8
2017-Apr-24 09:30N 48°51' W 005°50'915.9
2017-Apr-24 08:57N 48°57' W 005°39'715.2
2017-Apr-24 08:30N 48°60' W 005°30'815.8
2017-Apr-24 08:00N 49°04' W 005°19'816.5
2017-Apr-24 07:30N 49°08' W 005°09'816.3
2017-Apr-24 07:00N 49°13' W 004°59'7453.6
2017-Apr-24 07:00N 49°12' W 004°48'510.7 1020.210.8 11.5 8.912.0
2017-Apr-24 06:30N 49°17' W 004°48'815.5
2017-Apr-24 06:00N 49°21' W 004°38'715.0
2017-Apr-24 05:31N 49°25' W 004°28'714.5
2017-Apr-24 05:00N 49°29' W 004°19'814.4
2017-Apr-24 04:26N 49°33' W 004°08'614.2
2017-Apr-24 04:01N 49°36' W 003°60'714.1
2017-Apr-24 03:31N 49°39' W 003°50'714.1
2017-Apr-24 03:01N 49°43' W 003°41'714.5
2017-Apr-24 02:31N 49°47' W 003°32'714.8
2017-Apr-24 02:01N 49°51' W 003°22'10627.1
2017-Apr-24 02:00N 49°42' W 003°30'1736.0 310 / 81021.110.8 11.9 7.412.0
2017-Apr-24 01:31N 49°55' W 003°11'815.9
2017-Apr-24 01:01N 49°59' W 003°01'816.5
2017-Apr-24 00:31N 50°02' W 002°49'917.1
2017-Apr-24 00:01N 50°05' W 002°36'917.1
2017-Apr-23 23:30N 50°08' W 002°24'816.9
2017-Apr-23 23:00N 50°14' W 002°14'1416.2
2017-Apr-23 22:07N 50°20' W 001°54'216.4
2017-Apr-23 22:01N 50°20' W 001°51'815.9
2017-Apr-23 21:30N 50°22' W 001°39'915.1
2017-Apr-23 20:55N 50°25' W 001°26'614.5
2017-Apr-23 20:30N 50°28' W 001°17'713.7
2017-Apr-23 20:01N 50°30' W 001°07'612.2
2017-Apr-23 19:31N 50°34' W 000°60'612.9
2017-Apr-23 19:01N 50°41' W 000°58'4 7.9
2017-Apr-23 18:31N 50°43' W 001°02'510.3
2017-Apr-23 18:01N 50°46' W 001°10'611.6
2017-Apr-23 17:30N 50°48' W 001°18'4 8.9
2017-Apr-23 17:00N 50°52' W 001°22'2 4.6
2017-Apr-23 16:30N 50°53' W 001°24'0 0.0
2017-Apr-23 16:00N 50°53' W 001°24'0 0.0
2017-Apr-23 15:30N 50°53' W 001°24'0 0.0
2017-Apr-23 15:00N 50°53' W 001°24'0 0.0
2017-Apr-23 14:00N 50°53' W 001°24'0 0.0
2017-Apr-23 13:30N 50°53' W 001°24'0 0.0
2017-Apr-23 13:00N 50°53' W 001°24'0 0.0
2017-Apr-23 12:30N 50°53' W 001°24'0 0.0
2017-Apr-23 12:00N 50°53' W 001°24'0 0.0
2017-Apr-23 11:27N 50°53' W 001°24'0 0.0
2017-Apr-23 11:00N 50°53' W 001°24'0 0.0
2017-Apr-23 10:30N 50°53' W 001°24'0 0.0
2017-Apr-23 10:00N 50°53' W 001°24'0 0.0
2017-Apr-23 09:30N 50°53' W 001°24'0 0.0
2017-Apr-23 09:00N 50°53' W 001°24'0 0.0
2017-Apr-23 08:30N 50°53' W 001°24'0 0.0
2017-Apr-23 08:00N 50°53' W 001°24'0 0.0
2017-Apr-23 07:30N 50°53' W 001°24'0 0.0
2017-Apr-23 07:00N 50°53' W 001°24'0 0.0
2017-Apr-23 06:30N 50°53' W 001°24'0 0.0
2017-Apr-23 06:00N 50°53' W 001°24'0 0.4
2017-Apr-23 05:30N 50°53' W 001°24'4 8.3
2017-Apr-23 05:01N 50°50' W 001°19'4 8.1
2017-Apr-23 04:30N 50°47' W 001°18'816.2
2017-Apr-23 04:00N 50°45' W 001°05'612.7
2017-Apr-23 03:30N 50°40' W 000°58'5 9.9
2017-Apr-23 03:00N 50°35' W 001°00'510.2
2017-Apr-23 02:30N 50°32' W 001°06'510.6
2017-Apr-23 02:00N 50°30' W 001°14'510.8
2017-Apr-23 01:30N 50°27' W 001°21'810.9
2017-Apr-23 00:45N 50°24' W 001°33'311.0
2017-Apr-23 00:30N 50°23' W 001°37'2010.4
2017-Apr-22 22:35N 50°10' W 002°01'4910.8
2017-Apr-22 18:01N 49°23' W 002°23'211.6
2017-Apr-22 17:53N 49°23' W 002°25'5 6.5
2017-Apr-22 17:05N 49°28' W 002°30'0 0.0
2017-Apr-22 16:53N 49°28' W 002°30'0 0.0
2017-Apr-22 08:09N 49°27' W 002°30'0 0.0
2017-Apr-22 07:01N 49°28' W 002°30'0 0.0
2017-Apr-22 06:49N 49°28' W 002°30'0 0.0
2017-Apr-22 06:25N 49°28' W 002°30'0 1.2
2017-Apr-22 06:00N 49°27' W 002°30'5 9.3
2017-Apr-22 05:30N 49°23' W 002°33'612.8
2017-Apr-22 05:00N 49°21' W 002°42'712.9
2017-Apr-22 04:29N 49°18' W 002°52'613.0
2017-Apr-22 04:00N 49°16' W 003°00'713.0
2017-Apr-22 03:29N 49°14' W 003°10'1513.2
2017-Apr-22 02:22N 49°09' W 003°31'613.3
2017-Apr-22 01:56N 49°07' W 003°40'7 7.0
2017-Apr-22 01:00N 49°06' W 003°30'20309.8 050 / 91029.210.8 11.610.212.0
2017-Apr-22 00:56N 49°03' W 003°59'1013.5
2017-Apr-22 00:11N 48°59' W 004°14'213.4
2017-Apr-22 00:00N 48°58' W 004°17'713.6
2017-Apr-21 23:29N 48°55' W 004°27'713.7
2017-Apr-21 23:00N 48°53' W 004°36'713.5
2017-Apr-21 22:30N 48°51' W 004°46'713.4
2017-Apr-21 22:00N 48°48' W 004°55'713.2
2017-Apr-21 21:30N 48°45' W 005°04'713.4
2017-Apr-21 21:00N 48°40' W 005°11'713.5
2017-Apr-21 20:30N 48°35' W 005°19'813.5
2017-Apr-21 19:54N 48°29' W 005°26'613.5
2017-Apr-21 19:29N 48°24' W 005°30'713.3
2017-Apr-21 19:00N 48°18' W 005°33'713.5
2017-Apr-21 18:30N 48°12' W 005°37'1223.9
2017-Apr-21 18:00N 48°00' W 005°42'317.3 040 / 211029.9 11.5 6.213.0
2017-Apr-21 17:48N 48°03' W 005°43'413.3
2017-Apr-21 17:30N 47°59' W 005°45'16713.3
2017-Apr-21 05:00N 45°24' W 007°12'40 9.9 100 / 441025.010.8 12.1 5.413.0
2017-Apr-21 01:00N 44°48' W 007°36'4511.3 090 / 441028.5 5.4 12.8 5.813.0
2017-Apr-20 21:00N 44°06' W 008°00'55 2.7 100 / 471023.9 5.4 12.0 5.613.0
2017-Apr-20 01:00N 43°48' W 006°48'1037.1 080 / 401023.4 5.4 13.7 5.713.0
2017-Apr-20 00:43N 43°50' W 006°34'718.5
2017-Apr-20 00:21N 43°49' W 006°25'11417.9
2017-Apr-19 18:00N 43°36' W 003°48'53 3.1 060 / 271025.210.8 13.0 4.213.0
2017-Apr-19 01:00N 44°06' W 002°48'11316.9 070 / 251025.710.8 14.2 4.814.0
2017-Apr-18 18:21N 45°51' W 001°49'616.1
2017-Apr-18 18:00N 45°56' W 001°46'815.9
2017-Apr-18 17:31N 46°03' W 001°40'714.1
2017-Apr-18 17:00N 46°07' W 001°33'815.2
2017-Apr-18 16:30N 46°06' W 001°22'510.5
2017-Apr-18 16:00N 46°08' W 001°15'2 3.0
2017-Apr-18 15:29N 46°10' W 001°14'0 0.0
2017-Apr-18 14:58N 46°10' W 001°14'0 0.0
2017-Apr-18 14:28N 46°10' W 001°14'0 0.0
2017-Apr-18 13:30N 46°10' W 001°14'0 0.0
2017-Apr-18 13:00N 46°10' W 001°14'0 0.0
2017-Apr-18 12:30N 46°10' W 001°14'0 0.0
2017-Apr-18 12:00N 46°10' W 001°14'0 0.0
2017-Apr-18 11:29N 46°10' W 001°14'0 0.0
2017-Apr-18 10:59N 46°10' W 001°14'0 0.0
2017-Apr-18 10:29N 46°10' W 001°14'0 0.0
2017-Apr-18 09:59N 46°10' W 001°14'0 0.0
2017-Apr-18 09:29N 46°10' W 001°14'0 0.0
2017-Apr-18 08:59N 46°10' W 001°14'0 0.0
2017-Apr-18 08:29N 46°10' W 001°14'0 0.0
2017-Apr-18 07:59N 46°10' W 001°14'0 0.0
2017-Apr-18 07:29N 46°10' W 001°14'0 0.0
2017-Apr-18 06:59N 46°10' W 001°14'0 0.2
2017-Apr-18 06:30N 46°10' W 001°15'2 3.6
2017-Apr-18 06:00N 46°08' W 001°15'4 7.3
2017-Apr-18 05:30N 46°06' W 001°19'612.7
2017-Apr-18 05:00N 46°07' W 001°28'713.3
2017-Apr-18 04:30N 46°08' W 001°38'613.0
2017-Apr-18 04:00N 46°09' W 001°47'713.5
2017-Apr-18 03:30N 46°13' W 001°55'713.5
2017-Apr-18 03:00N 46°17' W 002°03'713.6
2017-Apr-18 02:30N 46°21' W 002°11'713.4
2017-Apr-18 02:00N 46°25' W 002°19'713.4
2017-Apr-18 01:30N 46°29' W 002°27'713.5
2017-Apr-18 01:00N 46°33' W 002°34'8496.2
2017-Apr-18 01:00N 46°36' W 002°24'1325.7 050 / 261022.810.8 12.8 7.314.0
2017-Apr-18 00:29N 46°37' W 002°43'913.8
2017-Apr-17 23:51N 46°42' W 002°53'613.8
2017-Apr-17 23:26N 46°45' W 002°60'613.8
2017-Apr-17 22:59N 46°49' W 003°07'510.8
2017-Apr-17 22:29N 46°52' W 003°14'713.2
2017-Apr-17 21:59N 46°56' W 003°22'713.0
2017-Apr-17 21:29N 46°59' W 003°30'713.1
2017-Apr-17 20:59N 47°03' W 003°37'612.6
2017-Apr-17 20:29N 47°07' W 003°45'713.5
2017-Apr-17 19:59N 47°11' W 003°53'612.8
2017-Apr-17 19:30N 47°14' W 004°00'713.4
2017-Apr-17 19:00N 47°18' W 004°08'713.6
2017-Apr-17 18:30N 47°22' W 004°17'2313.4
2017-Apr-17 16:49N 47°35' W 004°44'413.1
2017-Apr-17 16:31N 47°37' W 004°49'713.0
2017-Apr-17 16:00N 47°41' W 004°57'713.6
2017-Apr-17 15:30N 47°44' W 005°06'713.7
2017-Apr-17 14:59N 47°47' W 005°16'1512.3
2017-Apr-17 13:44N 47°59' W 005°30'513.4
2017-Apr-17 13:23N 48°04' W 005°31'513.2
2017-Apr-17 13:00N 48°08' W 005°30'713.3
2017-Apr-17 12:29N 48°15' W 005°29'813.1
2017-Apr-17 11:53N 48°23' W 005°29'513.1
2017-Apr-17 11:30N 48°28' W 005°27'713.7
2017-Apr-17 11:00N 48°33' W 005°21'612.7
2017-Apr-17 10:30N 48°38' W 005°15'714.4
2017-Apr-17 10:00N 48°44' W 005°07'714.2
2017-Apr-17 09:30N 48°48' W 004°59'713.8
2017-Apr-17 09:00N 48°53' W 004°51'1013.3
2017-Apr-17 08:16N 48°59' W 004°40'613.2
2017-Apr-17 07:50N 49°03' W 004°33'613.3
2017-Apr-17 07:23N 49°07' W 004°26'2417.2
2017-Apr-17 06:00N 49°18' W 003°54'3012.8 330 / 191023.710.8 11.0 9.011.0
2017-Apr-17 03:37N 49°42' W 003°25'215.8
2017-Apr-17 03:30N 49°43' W 003°23'815.8
2017-Apr-17 03:00N 49°48' W 003°14'815.6
2017-Apr-17 02:30N 49°53' W 003°04'715.0
2017-Apr-17 02:00N 49°57' W 002°54'5319.8
2017-Apr-17 02:00N 49°54' W 002°48'612.5 290 / 241022.310.8 11.0 8.812.0
2017-Apr-17 01:29N 49°60' W 002°43'713.8
2017-Apr-17 01:00N 50°02' W 002°34'3412.1
2017-Apr-16 22:10N 50°18' W 001°46'211.2
2017-Apr-16 22:00N 50°18' W 001°43'611.4
2017-Apr-16 21:30N 50°21' W 001°35'611.8
2017-Apr-16 21:00N 50°24' W 001°28'612.0
2017-Apr-16 20:30N 50°27' W 001°19'612.7
2017-Apr-16 20:01N 50°30' W 001°10'713.0
2017-Apr-16 19:30N 50°33' W 001°02'713.2
2017-Apr-16 19:01N 50°40' W 000°59'5 9.8
2017-Apr-16 18:30N 50°44' W 001°03'815.2
2017-Apr-16 18:00N 50°46' W 001°15'5 9.4
2017-Apr-16 17:30N 50°50' W 001°19'510.0
2017-Apr-16 17:00N 50°53' W 001°24'1 2.3
2017-Apr-16 16:30N 50°54' W 001°26'0 0.0
2017-Apr-16 16:00N 50°54' W 001°26'0 0.0
2017-Apr-16 15:30N 50°54' W 001°26'0 0.0
2017-Apr-16 15:00N 50°54' W 001°26'0 0.0
2017-Apr-16 14:00N 50°54' W 001°26'0 0.0
2017-Apr-16 13:30N 50°54' W 001°26'0 0.0
2017-Apr-16 13:00N 50°54' W 001°26'0 0.0
2017-Apr-16 12:30N 50°54' W 001°26'0 0.0
2017-Apr-16 12:00N 50°54' W 001°26'0 0.0
2017-Apr-16 11:30N 50°54' W 001°26'0 0.0
2017-Apr-16 11:00N 50°54' W 001°26'0 0.0
2017-Apr-16 10:30N 50°54' W 001°26'0 0.0
2017-Apr-16 10:00N 50°54' W 001°26'0 0.0
2017-Apr-16 09:30N 50°54' W 001°26'0 0.0
2017-Apr-16 09:00N 50°54' W 001°26'0 0.0
2017-Apr-16 08:30N 50°54' W 001°26'0 0.0
2017-Apr-16 08:00N 50°54' W 001°26'0 0.0
2017-Apr-16 07:30N 50°54' W 001°26'0 0.0
2017-Apr-16 07:00N 50°54' W 001°26'0 0.0
2017-Apr-16 06:30N 50°54' W 001°26'0 0.0
2017-Apr-16 06:00N 50°54' W 001°26'0 0.0
2017-Apr-16 05:30N 50°54' W 001°26'0 0.4
2017-Apr-16 05:00N 50°54' W 001°25'4 8.8
2017-Apr-16 04:30N 50°51' W 001°20'4 8.3
2017-Apr-16 04:01N 50°47' W 001°19'714.5
2017-Apr-16 03:31N 50°45' W 001°08'815.1
2017-Apr-16 03:01N 50°42' W 000°58'611.8
2017-Apr-16 02:30N 50°36' W 000°58'815.1
2017-Apr-16 02:00N 50°31' W 001°07'816.8
2017-Apr-16 01:30N 50°27' W 001°19'816.7
2017-Apr-16 01:00N 50°24' W 001°31'916.9
2017-Apr-16 00:30N 50°19' W 001°43'917.4
2017-Apr-16 00:00N 50°14' W 001°54'3418.7
2017-Apr-15 22:09N 49°54' W 002°37'519.3
2017-Apr-15 21:54N 49°53' W 002°44'819.3
2017-Apr-15 21:30N 49°50' W 002°56'1019.1
2017-Apr-15 21:00N 49°46' W 003°09'918.9
2017-Apr-15 20:30N 49°39' W 003°19'6518.8
2017-Apr-15 17:04N 48°58' W 004°36'118.9
2017-Apr-15 17:00N 48°57' W 004°38'101695.0
2017-Apr-15 17:00N 48°48' W 004°42'611.8 330 / 161024.010.8 12.5 7.412.0
2017-Apr-15 16:30N 48°52' W 004°49'918.8
2017-Apr-15 16:00N 48°46' W 004°60'1019.3
2017-Apr-15 15:30N 48°40' W 005°11'1019.3
2017-Apr-15 15:00N 48°32' W 005°21'918.9
2017-Apr-15 14:30N 48°25' W 005°29'2617.3
2017-Apr-15 13:00N 48°00' W 005°42'6321.0 310 / 131025.110.8 12.0 9.412.0
2017-Apr-15 10:00N 47°06' W 006°30'   300 / 151024.510.8 13.0 9.113.0
Track history (hours):
 
Tides and Currents Weather Stations Pressure Air Temp Water Temp Dewpoint Dewpoint Depression Visibility Wind Speed Wind Dir Waves Ship Positions

Azure

Last reported at 2017-Apr-25 07:00 UTC. Time now 2017-Apr-25 12:32 UTC.
Position N 44°12' W 009°54'.

Length 289 m; draft 8.6 m.

Type: Passenger vessel. MMSI: 310610000.

Wind from 060 at 20 knots

Barometer 1011.6 mb
Air temperature 15.5 ° C
Visibility: greater than 5.4 NM
Dewpoint 10.8 ° C
Water temperature 14.0 ° C

Date/timePositionNaut miles runAvg speedWind from/ knotsBaromVisibWave heightAir tempDewpointWater temp
2017-Apr-25 07:00N 44°12' W 009°54'17614.7 060 / 201011.6 5.4 15.510.814.0
2017-Apr-24 19:00N 46°42' W 007°42'5016.0 030 / 81016.610.8 16.0 9.313.0
2017-Apr-24 15:51N 47°26' W 007°08'616.4
2017-Apr-24 15:30N 47°31' W 007°03'816.4
2017-Apr-24 15:00N 47°38' W 006°57'816.2
2017-Apr-24 14:30N 47°45' W 006°51'4515.9
2017-Apr-24 11:38N 48°24' W 006°15'214.3
2017-Apr-24 11:28N 48°26' W 006°14'1114.6
2017-Apr-24 10:41N 48°36' W 006°05'315.0
2017-Apr-24 10:30N 48°38' W 006°02'915.4
2017-Apr-24 09:55N 48°46' W 005°55'615.8
2017-Apr-24 09:30N 48°51' W 005°50'915.9
2017-Apr-24 08:57N 48°57' W 005°39'715.2
2017-Apr-24 08:30N 48°60' W 005°30'815.8
2017-Apr-24 08:00N 49°04' W 005°19'816.5
2017-Apr-24 07:30N 49°08' W 005°09'816.3
2017-Apr-24 07:00N 49°13' W 004°59'7453.6
2017-Apr-24 07:00N 49°12' W 004°48'510.7 1020.210.8 11.5 8.912.0
2017-Apr-24 06:30N 49°17' W 004°48'815.5
2017-Apr-24 06:00N 49°21' W 004°38'715.0
2017-Apr-24 05:31N 49°25' W 004°28'714.5
2017-Apr-24 05:00N 49°29' W 004°19'814.4
2017-Apr-24 04:26N 49°33' W 004°08'614.2
2017-Apr-24 04:01N 49°36' W 003°60'714.1
2017-Apr-24 03:31N 49°39' W 003°50'714.1
2017-Apr-24 03:01N 49°43' W 003°41'714.5
2017-Apr-24 02:31N 49°47' W 003°32'714.8
2017-Apr-24 02:01N 49°51' W 003°22'10627.1
2017-Apr-24 02:00N 49°42' W 003°30'1736.0 310 / 81021.110.8 11.9 7.412.0
2017-Apr-24 01:31N 49°55' W 003°11'815.9
2017-Apr-24 01:01N 49°59' W 003°01'816.5
2017-Apr-24 00:31N 50°02' W 002°49'917.1
2017-Apr-24 00:01N 50°05' W 002°36'917.1
2017-Apr-23 23:30N 50°08' W 002°24'816.9
2017-Apr-23 23:00N 50°14' W 002°14'1416.2
2017-Apr-23 22:07N 50°20' W 001°54'216.4
2017-Apr-23 22:01N 50°20' W 001°51'815.9
2017-Apr-23 21:30N 50°22' W 001°39'915.1
2017-Apr-23 20:55N 50°25' W 001°26'614.5
2017-Apr-23 20:30N 50°28' W 001°17'713.7
2017-Apr-23 20:01N 50°30' W 001°07'612.2
2017-Apr-23 19:31N 50°34' W 000°60'612.9
2017-Apr-23 19:01N 50°41' W 000°58'4 7.9
2017-Apr-23 18:31N 50°43' W 001°02'510.3
2017-Apr-23 18:01N 50°46' W 001°10'611.6
2017-Apr-23 17:30N 50°48' W 001°18'4 8.9
2017-Apr-23 17:00N 50°52' W 001°22'2 4.6
2017-Apr-23 16:30N 50°53' W 001°24'0 0.0
2017-Apr-23 16:00N 50°53' W 001°24'0 0.0
2017-Apr-23 15:30N 50°53' W 001°24'0 0.0
2017-Apr-23 15:00N 50°53' W 001°24'0 0.0
2017-Apr-23 14:00N 50°53' W 001°24'0 0.0
2017-Apr-23 13:30N 50°53' W 001°24'0 0.0
2017-Apr-23 13:00N 50°53' W 001°24'0 0.0
2017-Apr-23 12:30N 50°53' W 001°24'0 0.0
2017-Apr-23 12:00N 50°53' W 001°24'0 0.0
2017-Apr-23 11:27N 50°53' W 001°24'0 0.0
2017-Apr-23 11:00N 50°53' W 001°24'0 0.0
2017-Apr-23 10:30N 50°53' W 001°24'0 0.0
2017-Apr-23 10:00N 50°53' W 001°24'0 0.0
2017-Apr-23 09:30N 50°53' W 001°24'0 0.0
2017-Apr-23 09:00N 50°53' W 001°24'0 0.0
2017-Apr-23 08:30N 50°53' W 001°24'0 0.0
2017-Apr-23 08:00N 50°53' W 001°24'0 0.0
2017-Apr-23 07:30N 50°53' W 001°24'0 0.0
2017-Apr-23 07:00N 50°53' W 001°24'0 0.0
2017-Apr-23 06:30N 50°53' W 001°24'0 0.0
2017-Apr-23 06:00N 50°53' W 001°24'0 0.4
2017-Apr-23 05:30N 50°53' W 001°24'4 8.3
2017-Apr-23 05:01N 50°50' W 001°19'4 8.1
2017-Apr-23 04:30N 50°47' W 001°18'816.2
2017-Apr-23 04:00N 50°45' W 001°05'612.7
2017-Apr-23 03:30N 50°40' W 000°58'5 9.9
2017-Apr-23 03:00N 50°35' W 001°00'510.2
2017-Apr-23 02:30N 50°32' W 001°06'510.6
2017-Apr-23 02:00N 50°30' W 001°14'510.8
2017-Apr-23 01:30N 50°27' W 001°21'810.9
2017-Apr-23 00:45N 50°24' W 001°33'311.0
2017-Apr-23 00:30N 50°23' W 001°37'2010.4
2017-Apr-22 22:35N 50°10' W 002°01'4910.8
2017-Apr-22 18:01N 49°23' W 002°23'211.6
2017-Apr-22 17:53N 49°23' W 002°25'5 6.5
2017-Apr-22 17:05N 49°28' W 002°30'0 0.0
2017-Apr-22 16:53N 49°28' W 002°30'0 0.0
2017-Apr-22 08:09N 49°27' W 002°30'0 0.0
2017-Apr-22 07:01N 49°28' W 002°30'0 0.0
2017-Apr-22 06:49N 49°28' W 002°30'0 0.0
2017-Apr-22 06:25N 49°28' W 002°30'0 1.2
2017-Apr-22 06:00N 49°27' W 002°30'5 9.3
2017-Apr-22 05:30N 49°23' W 002°33'612.8
2017-Apr-22 05:00N 49°21' W 002°42'712.9
2017-Apr-22 04:29N 49°18' W 002°52'613.0
2017-Apr-22 04:00N 49°16' W 003°00'713.0
2017-Apr-22 03:29N 49°14' W 003°10'1513.2
2017-Apr-22 02:22N 49°09' W 003°31'613.3
2017-Apr-22 01:56N 49°07' W 003°40'7 7.0
2017-Apr-22 01:00N 49°06' W 003°30'20309.8 050 / 91029.210.8 11.610.212.0
2017-Apr-22 00:56N 49°03' W 003°59'1013.5
2017-Apr-22 00:11N 48°59' W 004°14'213.4
2017-Apr-22 00:00N 48°58' W 004°17'713.6
2017-Apr-21 23:29N 48°55' W 004°27'713.7
2017-Apr-21 23:00N 48°53' W 004°36'713.5
2017-Apr-21 22:30N 48°51' W 004°46'713.4
2017-Apr-21 22:00N 48°48' W 004°55'713.2
2017-Apr-21 21:30N 48°45' W 005°04'713.4
2017-Apr-21 21:00N 48°40' W 005°11'713.5
2017-Apr-21 20:30N 48°35' W 005°19'813.5
2017-Apr-21 19:54N 48°29' W 005°26'613.5
2017-Apr-21 19:29N 48°24' W 005°30'713.3
2017-Apr-21 19:00N 48°18' W 005°33'713.5
2017-Apr-21 18:30N 48°12' W 005°37'1223.9
2017-Apr-21 18:00N 48°00' W 005°42'317.3 040 / 211029.9 11.5 6.213.0
2017-Apr-21 17:48N 48°03' W 005°43'413.3
2017-Apr-21 17:30N 47°59' W 005°45'16713.3
2017-Apr-21 05:00N 45°24' W 007°12'40 9.9 100 / 441025.010.8 12.1 5.413.0
2017-Apr-21 01:00N 44°48' W 007°36'4511.3 090 / 441028.5 5.4 12.8 5.813.0
2017-Apr-20 21:00N 44°06' W 008°00'55 2.7 100 / 471023.9 5.4 12.0 5.613.0
2017-Apr-20 01:00N 43°48' W 006°48'1037.1 080 / 401023.4 5.4 13.7 5.713.0
2017-Apr-20 00:43N 43°50' W 006°34'718.5
2017-Apr-20 00:21N 43°49' W 006°25'11417.9
2017-Apr-19 18:00N 43°36' W 003°48'53 3.1 060 / 271025.210.8 13.0 4.213.0
2017-Apr-19 01:00N 44°06' W 002°48'11316.9 070 / 251025.710.8 14.2 4.814.0
2017-Apr-18 18:21N 45°51' W 001°49'616.1
2017-Apr-18 18:00N 45°56' W 001°46'815.9
2017-Apr-18 17:31N 46°03' W 001°40'714.1
2017-Apr-18 17:00N 46°07' W 001°33'815.2
2017-Apr-18 16:30N 46°06' W 001°22'510.5
2017-Apr-18 16:00N 46°08' W 001°15'2 3.0
2017-Apr-18 15:29N 46°10' W 001°14'0 0.0
2017-Apr-18 14:58N 46°10' W 001°14'0 0.0
2017-Apr-18 14:28N 46°10' W 001°14'0 0.0
2017-Apr-18 13:30N 46°10' W 001°14'0 0.0
2017-Apr-18 13:00N 46°10' W 001°14'0 0.0
2017-Apr-18 12:30N 46°10' W 001°14'0 0.0
2017-Apr-18 12:00N 46°10' W 001°14'0 0.0
2017-Apr-18 11:29N 46°10' W 001°14'0 0.0
2017-Apr-18 10:59N 46°10' W 001°14'0 0.0
2017-Apr-18 10:29N 46°10' W 001°14'0 0.0
2017-Apr-18 09:59N 46°10' W 001°14'0 0.0
2017-Apr-18 09:29N 46°10' W 001°14'0 0.0
2017-Apr-18 08:59N 46°10' W 001°14'0 0.0
2017-Apr-18 08:29N 46°10' W 001°14'0 0.0
2017-Apr-18 07:59N 46°10' W 001°14'0 0.0
2017-Apr-18 07:29N 46°10' W 001°14'0 0.0
2017-Apr-18 06:59N 46°10' W 001°14'0 0.2
2017-Apr-18 06:30N 46°10' W 001°15'2 3.6
2017-Apr-18 06:00N 46°08' W 001°15'4 7.3
2017-Apr-18 05:30N 46°06' W 001°19'612.7
2017-Apr-18 05:00N 46°07' W 001°28'713.3
2017-Apr-18 04:30N 46°08' W 001°38'613.0
2017-Apr-18 04:00N 46°09' W 001°47'713.5
2017-Apr-18 03:30N 46°13' W 001°55'713.5
2017-Apr-18 03:00N 46°17' W 002°03'713.6
2017-Apr-18 02:30N 46°21' W 002°11'713.4
2017-Apr-18 02:00N 46°25' W 002°19'713.4
2017-Apr-18 01:30N 46°29' W 002°27'713.5
2017-Apr-18 01:00N 46°33' W 002°34'8496.2
2017-Apr-18 01:00N 46°36' W 002°24'1325.7 050 / 261022.810.8 12.8 7.314.0
2017-Apr-18 00:29N 46°37' W 002°43'913.8
2017-Apr-17 23:51N 46°42' W 002°53'613.8
2017-Apr-17 23:26N 46°45' W 002°60'613.8
2017-Apr-17 22:59N 46°49' W 003°07'510.8
2017-Apr-17 22:29N 46°52' W 003°14'713.2
2017-Apr-17 21:59N 46°56' W 003°22'713.0
2017-Apr-17 21:29N 46°59' W 003°30'713.1
2017-Apr-17 20:59N 47°03' W 003°37'612.6
2017-Apr-17 20:29N 47°07' W 003°45'713.5
2017-Apr-17 19:59N 47°11' W 003°53'612.8
2017-Apr-17 19:30N 47°14' W 004°00'713.4
2017-Apr-17 19:00N 47°18' W 004°08'713.6
2017-Apr-17 18:30N 47°22' W 004°17'2313.4
2017-Apr-17 16:49N 47°35' W 004°44'413.1
2017-Apr-17 16:31N 47°37' W 004°49'713.0
2017-Apr-17 16:00N 47°41' W 004°57'713.6
2017-Apr-17 15:30N 47°44' W 005°06'713.7
2017-Apr-17 14:59N 47°47' W 005°16'1512.3
2017-Apr-17 13:44N 47°59' W 005°30'513.4
2017-Apr-17 13:23N 48°04' W 005°31'513.2
2017-Apr-17 13:00N 48°08' W 005°30'713.3
2017-Apr-17 12:29N 48°15' W 005°29'813.1
2017-Apr-17 11:53N 48°23' W 005°29'513.1
2017-Apr-17 11:30N 48°28' W 005°27'713.7
2017-Apr-17 11:00N 48°33' W 005°21'612.7
2017-Apr-17 10:30N 48°38' W 005°15'714.4
2017-Apr-17 10:00N 48°44' W 005°07'714.2
2017-Apr-17 09:30N 48°48' W 004°59'713.8
2017-Apr-17 09:00N 48°53' W 004°51'1013.3
2017-Apr-17 08:16N 48°59' W 004°40'613.2
2017-Apr-17 07:50N 49°03' W 004°33'613.3
2017-Apr-17 07:23N 49°07' W 004°26'2417.2
2017-Apr-17 06:00N 49°18' W 003°54'3012.8 330 / 191023.710.8 11.0 9.011.0
2017-Apr-17 03:37N 49°42' W 003°25'215.8
2017-Apr-17 03:30N 49°43' W 003°23'815.8
2017-Apr-17 03:00N 49°48' W 003°14'815.6
2017-Apr-17 02:30N 49°53' W 003°04'715.0
2017-Apr-17 02:00N 49°57' W 002°54'5319.8
2017-Apr-17 02:00N 49°54' W 002°48'612.5 290 / 241022.310.8 11.0 8.812.0
2017-Apr-17 01:29N 49°60' W 002°43'713.8
2017-Apr-17 01:00N 50°02' W 002°34'3412.1
2017-Apr-16 22:10N 50°18' W 001°46'211.2
2017-Apr-16 22:00N 50°18' W 001°43'611.4
2017-Apr-16 21:30N 50°21' W 001°35'611.8
2017-Apr-16 21:00N 50°24' W 001°28'612.0
2017-Apr-16 20:30N 50°27' W 001°19'612.7
2017-Apr-16 20:01N 50°30' W 001°10'713.0
2017-Apr-16 19:30N 50°33' W 001°02'713.2
2017-Apr-16 19:01N 50°40' W 000°59'5 9.8
2017-Apr-16 18:30N 50°44' W 001°03'815.2
2017-Apr-16 18:00N 50°46' W 001°15'5 9.4
2017-Apr-16 17:30N 50°50' W 001°19'510.0
2017-Apr-16 17:00N 50°53' W 001°24'1 2.3
2017-Apr-16 16:30N 50°54' W 001°26'0 0.0
2017-Apr-16 16:00N 50°54' W 001°26'0 0.0
2017-Apr-16 15:30N 50°54' W 001°26'0 0.0
2017-Apr-16 15:00N 50°54' W 001°26'0 0.0
2017-Apr-16 14:00N 50°54' W 001°26'0 0.0
2017-Apr-16 13:30N 50°54' W 001°26'0 0.0
2017-Apr-16 13:00N 50°54' W 001°26'0 0.0
2017-Apr-16 12:30N 50°54' W 001°26'0 0.0
2017-Apr-16 12:00N 50°54' W 001°26'0 0.0
2017-Apr-16 11:30N 50°54' W 001°26'0 0.0
2017-Apr-16 11:00N 50°54' W 001°26'0 0.0
2017-Apr-16 10:30N 50°54' W 001°26'0 0.0
2017-Apr-16 10:00N 50°54' W 001°26'0 0.0
2017-Apr-16 09:30N 50°54' W 001°26'0 0.0
2017-Apr-16 09:00N 50°54' W 001°26'0 0.0
2017-Apr-16 08:30N 50°54' W 001°26'0 0.0
2017-Apr-16 08:00N 50°54' W 001°26'0 0.0
2017-Apr-16 07:30N 50°54' W 001°26'0 0.0
2017-Apr-16 07:00N 50°54' W 001°26'0 0.0
2017-Apr-16 06:30N 50°54' W 001°26'0 0.0
2017-Apr-16 06:00N 50°54' W 001°26'0 0.0
2017-Apr-16 05:30N 50°54' W 001°26'0 0.4
2017-Apr-16 05:00N 50°54' W 001°25'4 8.8
2017-Apr-16 04:30N 50°51' W 001°20'4 8.3
2017-Apr-16 04:01N 50°47' W 001°19'714.5
2017-Apr-16 03:31N 50°45' W 001°08'815.1
2017-Apr-16 03:01N 50°42' W 000°58'611.8
2017-Apr-16 02:30N 50°36' W 000°58'815.1
2017-Apr-16 02:00N 50°31' W 001°07'816.8
2017-Apr-16 01:30N 50°27' W 001°19'816.7
2017-Apr-16 01:00N 50°24' W 001°31'916.9
2017-Apr-16 00:30N 50°19' W 001°43'917.4
2017-Apr-16 00:00N 50°14' W 001°54'3418.7
2017-Apr-15 22:09N 49°54' W 002°37'519.3
2017-Apr-15 21:54N 49°53' W 002°44'819.3
2017-Apr-15 21:30N 49°50' W 002°56'1019.1
2017-Apr-15 21:00N 49°46' W 003°09'918.9
2017-Apr-15 20:30N 49°39' W 003°19'6518.8
2017-Apr-15 17:04N 48°58' W 004°36'118.9
2017-Apr-15 17:00N 48°57' W 004°38'101695.0
2017-Apr-15 17:00N 48°48' W 004°42'611.8 330 / 161024.010.8 12.5 7.412.0
2017-Apr-15 16:30N 48°52' W 004°49'918.8
2017-Apr-15 16:00N 48°46' W 004°60'1019.3
2017-Apr-15 15:30N 48°40' W 005°11'1019.3
2017-Apr-15 15:00N 48°32' W 005°21'918.9
2017-Apr-15 14:30N 48°25' W 005°29'2617.3
2017-Apr-15 13:00N 48°00' W 005°42'6321.0 310 / 131025.110.8 12.0 9.412.0
2017-Apr-15 10:00N 47°06' W 006°30'   300 / 151024.510.8 13.0 9.113.0

Dump ship's entire track history